Time;durP1;ratioP1;P1;durP2;ratioP2;P2;SDS_P1;SDS_P2;PMS_P1;PMS_P2;Temp;Humidity;BMP_temperature;BMP_pressure;BME280_temperature;BME280_humidity;BME280_pressure;Samples;Min_cycle;Max_cycle;Signal;HPM_P1;HPM_P2
2021/10/05 00:01:57;;;;;;;10.50;6.30;;;;;;;8.91;38.73;101721.38;117313;1183;21853;-48
2021/10/05 00:04:26;;;;;;;11.10;5.50;;;;;;;8.91;38.81;101716.64;117304;1183;22628;-49
2021/10/05 00:06:54;;;;;;;11.20;6.20;;;;;;;8.88;38.86;101714.69;117364;1183;21863;-48
2021/10/05 00:09:22;;;;;;;10.40;5.50;;;;;;;8.85;38.80;101712.17;117343;1185;22974;-49
2021/10/05 00:11:51;;;;;;;16.70;5.40;;;;;;;8.83;38.75;101708.29;117189;1186;23470;-49
2021/10/05 00:14:19;;;;;;;11.00;5.80;;;;;;;8.78;38.66;101707.34;117376;1186;22535;-48
2021/10/05 00:16:48;;;;;;;10.90;5.30;;;;;;;8.75;38.79;101710.96;117375;1185;23541;-50
2021/10/05 00:19:16;;;;;;;12.80;5.60;;;;;;;8.72;38.79;101714.05;117378;1186;21857;-48
2021/10/05 00:21:44;;;;;;;13.00;5.30;;;;;;;8.70;38.84;101714.73;117322;1185;23566;-49
2021/10/05 00:24:12;;;;;;;11.00;6.20;;;;;;;8.68;38.97;101709.27;117120;1189;21854;-49
2021/10/05 00:26:40;;;;;;;11.40;5.90;;;;;;;8.67;38.87;101712.05;117348;1185;23544;-48
2021/10/05 00:29:09;;;;;;;14.80;5.70;;;;;;;8.65;38.81;101713.06;117290;1185;21867;-49
2021/10/05 00:31:37;;;;;;;9.50;5.40;;;;;;;8.62;38.99;101715.98;117359;1183;23537;-48
2021/10/05 00:34:06;;;;;;;9.60;5.00;;;;;;;8.59;38.91;101719.64;117359;1185;23583;-48
2021/10/05 00:36:34;;;;;;;12.30;5.90;;;;;;;8.55;38.94;101717.82;117311;1183;23585;-49
2021/10/05 00:39:02;;;;;;;12.10;5.60;;;;;;;8.49;38.92;101719.46;117303;1185;21858;-48
2021/10/05 00:41:33;;;;;;;13.50;5.60;;;;;;;8.46;39.08;101715.35;117324;1184;21922;-49
2021/10/05 00:44:01;;;;;;;10.80;5.40;;;;;;;8.40;38.94;101715.75;117331;1182;21858;-48
2021/10/05 00:46:29;;;;;;;10.70;5.60;;;;;;;8.37;38.95;101717.98;117326;1185;23540;-48
2021/10/05 00:48:58;;;;;;;11.60;5.70;;;;;;;8.34;38.92;101718.09;117298;1183;23557;-48
2021/10/05 00:51:26;;;;;;;10.40;5.60;;;;;;;8.32;39.15;101723.14;117278;1185;21855;-48
2021/10/05 00:53:54;;;;;;;12.80;5.70;;;;;;;8.32;39.11;101723.30;117205;1186;21857;-48
2021/10/05 00:56:22;;;;;;;9.90;5.50;;;;;;;8.29;39.19;101723.42;117259;1182;21868;-48
2021/10/05 00:58:50;;;;;;;11.90;5.80;;;;;;;8.26;39.16;101723.90;117256;1185;21859;-48
2021/10/05 01:01:19;;;;;;;9.60;6.20;;;;;;;8.24;39.08;101728.39;117235;1179;21880;-48
2021/10/05 01:03:47;;;;;;;8.40;5.60;;;;;;;8.20;39.16;101724.13;117255;1185;23541;-48
2021/10/05 01:06:16;;;;;;;10.10;5.40;;;;;;;8.18;39.15;101728.79;117243;1183;23473;-48
2021/10/05 01:08:46;;;;;;;12.10;5.80;;;;;;;8.17;39.26;101734.55;117209;1181;23567;-48
2021/10/05 01:11:14;;;;;;;13.30;5.40;;;;;;;8.15;39.11;101733.48;117306;1185;23554;-49
2021/10/05 01:13:43;;;;;;;17.80;6.30;;;;;;;8.13;39.25;101732.92;117297;1183;21858;-48
2021/10/05 01:16:11;;;;;;;10.20;5.30;;;;;;;8.11;39.51;101737.41;117348;1185;23542;-48
2021/10/05 01:18:39;;;;;;;12.00;5.50;;;;;;;8.09;39.38;101731.96;117386;1184;23585;-48
2021/10/05 01:21:07;;;;;;;11.30;6.10;;;;;;;8.06;39.16;101732.78;117322;1186;21895;-48
2021/10/05 01:23:37;;;;;;;11.20;6.00;;;;;;;8.05;39.25;101734.67;117457;1185;23564;-48
2021/10/05 01:26:05;;;;;;;10.70;5.30;;;;;;;8.03;39.36;101733.27;117349;1184;23554;-49
2021/10/05 01:28:33;;;;;;;12.00;4.90;;;;;;;8.02;39.36;101735.48;117293;1188;21856;-48
2021/10/05 01:31:01;;;;;;;11.10;5.40;;;;;;;8.02;39.35;101737.77;117298;1182;23544;-48
2021/10/05 01:33:30;;;;;;;10.60;5.30;;;;;;;8.02;39.36;101737.94;117384;1185;23569;-48
2021/10/05 01:35:58;;;;;;;11.60;5.50;;;;;;;8.00;39.49;101738.44;117324;1185;21856;-49
2021/10/05 01:38:26;;;;;;;9.20;6.10;;;;;;;8.01;39.48;101737.92;117338;1185;21858;-48
2021/10/05 01:40:54;;;;;;;9.90;4.90;;;;;;;8.03;39.35;101741.64;117432;1183;23541;-48
2021/10/05 01:43:23;;;;;;;9.00;4.90;;;;;;;8.01;39.49;101742.11;117345;1185;23553;-48
2021/10/05 01:45:52;;;;;;;11.20;5.60;;;;;;;7.99;39.54;101743.81;117363;1185;21873;-48
2021/10/05 01:48:20;;;;;;;9.10;5.30;;;;;;;8.00;39.45;101742.46;117369;1183;23546;-48
2021/10/05 01:50:48;;;;;;;8.60;5.70;;;;;;;8.01;39.40;101744.58;117313;1185;21845;-49
2021/10/05 01:53:17;;;;;;;12.20;5.70;;;;;;;8.01;39.40;101747.19;117330;1185;21940;-48
2021/10/05 01:55:45;;;;;;;10.20;5.50;;;;;;;8.02;39.49;101745.63;117102;1190;21864;-48
2021/10/05 01:58:13;;;;;;;10.70;5.90;;;;;;;8.01;39.51;101750.48;117305;1185;21868;-48
2021/10/05 02:00:41;;;;;;;9.20;5.20;;;;;;;7.99;39.50;101750.30;117309;1184;22000;-48
2021/10/05 02:03:10;;;;;;;9.20;5.30;;;;;;;8.00;39.43;101754.86;117342;1189;23560;-48
2021/10/05 02:05:40;;;;;;;12.40;5.90;;;;;;;7.92;39.45;101758.20;117384;1185;21862;-48
2021/10/05 02:08:09;;;;;;;9.60;5.40;;;;;;;7.90;39.45;101756.41;117353;1185;23132;-48
2021/10/05 02:10:37;;;;;;;9.90;5.10;;;;;;;7.89;39.72;101758.50;117307;1188;21855;-48
2021/10/05 02:13:06;;;;;;;19.90;5.60;;;;;;;7.97;39.68;101756.90;117302;1185;22910;-48
2021/10/05 02:15:38;;;;;;;8.70;5.40;;;;;;;7.99;39.39;101756.58;117349;1183;22915;-48
2021/10/05 02:18:06;;;;;;;13.30;6.00;;;;;;;7.99;39.52;101753.60;117343;1185;23462;-48
2021/10/05 02:20:34;;;;;;;11.40;5.70;;;;;;;7.90;39.64;101755.02;117317;1185;21855;-48
2021/10/05 02:23:02;;;;;;;10.80;5.30;;;;;;;7.90;39.73;101757.45;117327;1185;21919;-48
2021/10/05 02:25:30;;;;;;;13.10;5.80;;;;;;;7.87;39.68;101755.65;117283;1183;23063;-48
2021/10/05 02:27:58;;;;;;;8.90;5.80;;;;;;;7.84;39.71;101759.92;117351;1182;23528;-48
2021/10/05 02:30:26;;;;;;;16.50;7.00;;;;;;;7.81;39.74;101757.42;117370;1183;22361;-48
2021/10/05 02:32:54;;;;;;;11.70;6.20;;;;;;;7.79;39.70;101756.17;117305;1185;21864;-48
2021/10/05 02:35:23;;;;;;;9.70;5.80;;;;;;;7.77;39.71;101755.08;117361;1182;22615;-48
2021/10/05 02:37:52;;;;;;;10.20;5.60;;;;;;;7.74;39.71;101755.38;117329;1185;23571;-48
2021/10/05 02:40:20;;;;;;;8.50;5.40;;;;;;;7.72;39.60;101753.07;117414;1182;23541;-49
2021/10/05 02:42:48;;;;;;;11.10;6.30;;;;;;;7.70;39.80;101756.01;117276;1182;23541;-48
2021/10/05 02:45:16;;;;;;;10.70;5.60;;;;;;;7.68;39.79;101755.95;117370;1182;21855;-48
2021/10/05 02:47:45;;;;;;;11.60;5.30;;;;;;;7.68;39.89;101761.17;117349;1185;21858;-48
2021/10/05 02:50:13;;;;;;;12.40;5.80;;;;;;;7.67;39.86;101759.42;117284;1185;21845;-48
2021/10/05 02:52:41;;;;;;;19.30;7.00;;;;;;;7.66;40.02;101761.83;117308;1185;22439;-48
2021/10/05 02:55:10;;;;;;;9.40;5.90;;;;;;;7.64;40.17;101760.39;117374;1184;23544;-48
2021/10/05 02:57:38;;;;;;;11.20;6.00;;;;;;;7.61;40.01;101761.38;117400;1188;21856;-48
2021/10/05 03:00:07;;;;;;;13.10;5.70;;;;;;;7.59;40.12;101760.63;117322;1185;21851;-48
2021/10/05 03:02:35;;;;;;;8.90;5.70;;;;;;;7.57;39.94;101767.23;117366;1185;21849;-48
2021/10/05 03:05:05;;;;;;;10.10;6.00;;;;;;;7.55;40.03;101769.98;117383;1182;23526;-48
2021/10/05 03:07:36;;;;;;;9.20;5.70;;;;;;;7.56;40.07;101773.15;117353;1181;23567;-48
2021/10/05 03:10:05;;;;;;;10.90;5.60;;;;;;;7.56;39.87;101777.17;117362;1185;21853;-48
2021/10/05 03:12:34;;;;;;;8.80;5.80;;;;;;;7.56;40.13;101783.45;117337;1188;21861;-48
2021/10/05 03:15:05;;;;;;;11.40;6.20;;;;;;;7.58;40.08;101782.98;117378;1176;23461;-48
2021/10/05 03:17:34;;;;;;;9.30;5.50;;;;;;;7.59;40.06;101785.63;117363;1183;23437;-48
2021/10/05 03:20:03;;;;;;;9.80;5.30;;;;;;;7.61;40.09;101782.69;117327;1185;21852;-49
2021/10/05 03:22:31;;;;;;;15.60;6.10;;;;;;;7.62;40.15;101781.67;117347;1183;23442;-48
2021/10/05 03:24:59;;;;;;;14.90;6.20;;;;;;;7.63;40.15;101781.33;117286;1185;23447;-48
2021/10/05 03:27:28;;;;;;;15.20;5.90;;;;;;;7.63;40.21;101783.09;117288;1182;23544;-57
2021/10/05 03:29:56;;;;;;;10.00;6.00;;;;;;;7.65;40.19;101781.55;117313;1182;22663;-58
2021/10/05 03:32:25;;;;;;;9.70;6.20;;;;;;;7.66;40.12;101788.23;117343;1182;23567;-59
2021/10/05 03:34:53;;;;;;;16.90;6.40;;;;;;;7.68;40.28;101786.33;117464;1185;23544;-59
2021/10/05 03:37:21;;;;;;;11.90;6.30;;;;;;;7.69;40.36;101789.86;117307;1183;23534;-59
2021/10/05 03:39:49;;;;;;;11.40;6.10;;;;;;;7.69;40.28;101790.56;117397;1185;23554;-59
2021/10/05 03:42:19;;;;;;;15.90;5.60;;;;;;;7.70;40.30;101788.84;117257;1185;21896;-58
2021/10/05 03:44:47;;;;;;;11.20;5.90;;;;;;;7.70;40.31;101789.89;117263;1185;23566;-59
2021/10/05 03:47:15;;;;;;;15.30;5.80;;;;;;;7.72;40.36;101790.98;117328;1183;23544;-58
2021/10/05 03:49:44;;;;;;;25.50;7.20;;;;;;;7.74;40.35;101788.22;117331;1183;23566;-58
2021/10/05 03:52:12;;;;;;;13.90;6.30;;;;;;;7.74;40.38;101790.13;117426;1183;23544;-48
2021/10/05 03:54:42;;;;;;;16.60;6.50;;;;;;;7.75;40.43;101794.70;117294;1183;23554;-48
2021/10/05 03:57:11;;;;;;;13.90;6.00;;;;;;;7.77;40.49;101795.42;117349;1185;22616;-48
2021/10/05 03:59:39;;;;;;;14.80;6.50;;;;;;;7.77;40.44;101802.78;118216;1182;22907;-47
2021/10/05 04:02:07;;;;;;;16.00;6.10;;;;;;;7.79;40.47;101808.42;117284;1185;21852;-47
2021/10/05 04:04:36;;;;;;;21.30;6.80;;;;;;;7.83;40.60;101810.45;117325;1181;22073;-47
2021/10/05 04:07:04;;;;;;;14.50;6.00;;;;;;;7.88;40.47;101814.04;117291;1185;22913;-46
2021/10/05 04:09:33;;;;;;;21.10;6.70;;;;;;;7.92;40.66;101817.63;117321;1185;23545;-49
2021/10/05 04:12:01;;;;;;;25.80;6.90;;;;;;;7.98;40.37;101819.48;117329;1181;21867;-48
2021/10/05 04:14:30;;;;;;;26.50;7.20;;;;;;;7.97;40.60;101826.29;117315;1182;23557;-48
2021/10/05 04:16:58;;;;;;;40.50;8.20;;;;;;;7.94;40.41;101829.02;117269;1183;23531;-49
2021/10/05 04:19:26;;;;;;;29.30;8.30;;;;;;;7.91;40.42;101831.76;117320;1182;23544;-49
2021/10/05 04:21:54;;;;;;;16.50;6.80;;;;;;;7.87;40.36;101836.55;117340;1183;23541;-49
2021/10/05 04:24:22;;;;;;;17.30;6.50;;;;;;;7.84;40.34;101838.40;117316;1184;23462;-50
2021/10/05 04:26:51;;;;;;;20.10;6.70;;;;;;;7.81;40.41;101838.19;117321;1188;21859;-49
2021/10/05 04:29:19;;;;;;;11.60;6.40;;;;;;;7.80;40.52;101839.36;117316;1182;21895;-49
2021/10/05 04:31:47;;;;;;;23.40;6.70;;;;;;;7.79;40.52;101845.11;117448;1185;23557;-59
2021/10/05 04:34:15;;;;;;;13.80;6.40;;;;;;;7.78;40.36;101846.15;117348;1185;23554;-59
2021/10/05 04:36:44;;;;;;;16.20;7.20;;;;;;;7.77;40.47;101846.81;117282;1185;21987;-48
2021/10/05 04:39:12;;;;;;;14.80;6.90;;;;;;;7.76;40.75;101843.30;117323;1185;21882;-49
2021/10/05 04:41:40;;;;;;;14.10;6.60;;;;;;;7.77;40.55;101848.05;117305;1185;21848;-49
2021/10/05 04:44:08;;;;;;;14.90;6.10;;;;;;;7.80;40.66;101848.96;117341;1185;23541;-48
2021/10/05 04:46:38;;;;;;;11.40;6.40;;;;;;;7.83;40.69;101853.94;117328;1184;23544;-48
2021/10/05 04:49:06;;;;;;;17.70;6.90;;;;;;;7.87;40.87;101855.79;117348;1185;22918;-49
2021/10/05 04:51:35;;;;;;;16.70;6.60;;;;;;;7.94;40.96;101852.27;117382;1185;23544;-48
2021/10/05 04:54:03;;;;;;;14.70;6.70;;;;;;;7.99;40.93;101852.56;117357;1182;23553;-49
2021/10/05 04:56:32;;;;;;;12.10;6.50;;;;;;;8.06;41.12;101854.63;117355;1187;23531;-49
2021/10/05 04:59:00;;;;;;;12.30;6.90;;;;;;;8.14;41.01;101855.16;117291;1184;22621;-49
2021/10/05 05:01:29;;;;;;;14.00;6.20;;;;;;;8.22;41.04;101854.80;117359;1185;23624;-50
2021/10/05 05:03:57;;;;;;;13.30;6.40;;;;;;;8.32;41.30;101854.48;117274;1185;23641;-50
2021/10/05 05:06:26;;;;;;;15.50;6.70;;;;;;;8.45;41.27;101852.98;117333;1185;21852;-50
2021/10/05 05:08:54;;;;;;;16.20;6.40;;;;;;;8.56;41.31;101851.67;117284;1184;21869;-50
2021/10/05 05:11:22;;;;;;;11.90;6.80;;;;;;;8.69;41.38;101855.07;117326;1184;21853;-50
2021/10/05 05:13:50;;;;;;;13.10;6.60;;;;;;;8.82;41.41;101859.14;117296;1183;23544;-49
2021/10/05 05:16:39;;;;;;;17.00;6.80;;;;;;;8.89;41.68;101858.58;117280;1188;23627;-50
2021/10/05 05:19:08;;;;;;;12.80;6.90;;;;;;;9.03;41.82;101862.52;117352;1181;22968;-50
2021/10/05 05:21:36;;;;;;;16.10;7.10;;;;;;;9.29;41.83;101864.52;117306;1185;23429;-49
2021/10/05 05:24:05;;;;;;;19.20;7.00;;;;;;;9.48;41.66;101863.61;117344;1185;23537;-49
2021/10/05 05:26:34;;;;;;;13.10;6.80;;;;;;;9.65;41.77;101862.67;117304;1183;23554;-50
2021/10/05 05:29:02;;;;;;;16.20;6.80;;;;;;;9.82;41.84;101862.55;117464;1182;23545;-50
2021/10/05 05:31:33;;;;;;;16.80;6.20;;;;;;;10.02;41.91;101858.80;117357;1182;23532;-51
2021/10/05 05:34:01;;;;;;;13.60;7.30;;;;;;;10.25;42.05;101862.08;117362;1186;22819;-51
2021/10/05 05:36:30;;;;;;;16.20;7.10;;;;;;;10.47;42.09;101863.44;117347;1185;23553;-50
2021/10/05 05:39:03;;;;;;;17.70;6.60;;;;;;;10.68;42.13;101864.37;117445;1181;23464;-49
2021/10/05 05:41:32;;;;;;;13.60;6.80;;;;;;;10.89;41.97;101864.59;117344;1189;21856;-51
2021/10/05 05:44:00;;;;;;;11.40;6.80;;;;;;;11.08;41.83;101865.48;117375;1182;23569;-51
2021/10/05 05:46:28;;;;;;;13.30;6.10;;;;;;;11.27;42.12;101862.48;117365;1185;23630;-50
2021/10/05 05:48:56;;;;;;;15.30;7.60;;;;;;;11.49;42.33;101866.55;117282;1184;21872;-50
2021/10/05 05:51:25;;;;;;;11.10;6.50;;;;;;;11.73;42.18;101866.88;117378;1185;23563;-50
2021/10/05 05:53:53;;;;;;;11.50;6.60;;;;;;;11.95;42.18;101866.86;117304;1184;23465;-51
2021/10/05 05:56:21;;;;;;;11.30;6.70;;;;;;;12.18;42.24;101873.15;117395;1185;23557;-51
2021/10/05 05:58:52;;;;;;;13.10;6.50;;;;;;;12.38;42.18;101873.77;117319;1185;21845;-51
2021/10/05 06:01:21;;;;;;;11.80;7.80;;;;;;;12.57;42.33;101873.14;117368;1185;22982;-50
2021/10/05 06:03:50;;;;;;;15.10;7.10;;;;;;;12.78;42.45;101868.61;117361;1186;21892;-51
2021/10/05 06:06:18;;;;;;;13.30;6.10;;;;;;;13.03;42.29;101870.26;117414;1182;22935;-52
2021/10/05 06:08:48;;;;;;;14.50;6.80;;;;;;;13.25;42.29;101873.98;117334;1187;22950;-53
2021/10/05 06:11:18;;;;;;;13.20;7.20;;;;;;;13.49;42.26;101871.71;117307;1183;23439;-52
2021/10/05 06:13:47;;;;;;;11.10;6.90;;;;;;;13.72;42.33;101873.63;117363;1183;22817;-51
2021/10/05 06:16:16;;;;;;;14.60;7.00;;;;;;;13.91;42.27;101872.00;117333;1188;21882;-50
2021/10/05 06:18:44;;;;;;;20.40;7.10;;;;;;;14.09;42.25;101870.73;117379;1184;22630;-47
2021/10/05 06:21:12;;;;;;;23.20;7.40;;;;;;;14.32;42.14;101872.94;117289;1185;23564;-50
2021/10/05 06:23:40;;;;;;;14.20;6.80;;;;;;;14.53;42.22;101870.19;117352;1185;23601;-50
2021/10/05 06:26:09;;;;;;;16.20;6.60;;;;;;;14.70;42.09;101878.60;117405;1185;21855;-52
2021/10/05 06:28:37;;;;;;;18.50;6.90;;;;;;;14.91;42.23;101873.89;117212;1186;22864;-51
2021/10/05 06:31:05;;;;;;;13.60;7.40;;;;;;;15.14;42.23;101874.80;117323;1185;23560;-51
2021/10/05 06:33:34;;;;;;;17.10;7.60;;;;;;;15.37;42.14;101875.86;117339;1185;23541;-50
2021/10/05 06:36:03;;;;;;;14.70;7.70;;;;;;;15.59;42.23;101873.20;117308;1186;21888;-51
2021/10/05 06:38:31;;;;;;;13.10;6.60;;;;;;;15.81;42.16;101877.41;117362;1185;23454;-53
2021/10/05 06:40:59;;;;;;;14.10;7.10;;;;;;;16.01;42.16;101877.39;117347;1188;21862;-52
2021/10/05 06:43:27;;;;;;;13.70;7.40;;;;;;;16.23;42.17;101880.51;117276;1186;23540;-54
2021/10/05 06:45:55;;;;;;;16.30;7.80;;;;;;;16.47;42.04;101888.73;117319;1182;23541;-53
2021/10/05 06:48:24;;;;;;;15.30;7.70;;;;;;;16.69;42.04;101893.57;117330;1183;23678;-52
2021/10/05 06:50:52;;;;;;;11.40;7.30;;;;;;;16.86;41.92;101900.77;117320;1185;23560;-53
2021/10/05 06:53:20;;;;;;;12.70;7.30;;;;;;;17.08;42.01;101902.44;117377;1185;22843;-52
2021/10/05 06:55:50;;;;;;;16.40;7.30;;;;;;;17.30;41.85;101901.21;117302;1186;21864;-52
2021/10/05 06:58:18;;;;;;;16.10;7.10;;;;;;;17.51;41.80;101903.17;117355;1188;21850;-53
2021/10/05 07:00:46;;;;;;;30.40;13.10;;;;;;;17.71;41.74;101900.88;117457;1185;23541;-52
2021/10/05 07:03:15;;;;;;;16.80;9.50;;;;;;;17.87;41.67;101902.36;117357;1184;21850;-52
2021/10/05 07:05:44;;;;;;;16.20;7.80;;;;;;;18.01;41.56;101904.96;117282;1184;23542;-51
2021/10/05 07:08:14;;;;;;;16.40;7.30;;;;;;;18.15;41.57;101910.59;117353;1185;21877;-50
2021/10/05 07:10:42;;;;;;;20.90;10.70;;;;;;;18.33;41.58;101907.73;117242;1183;23566;-51
2021/10/05 07:13:10;;;;;;;51.30;28.30;;;;;;;18.56;41.66;101908.14;117314;1182;22632;-52
2021/10/05 07:15:39;;;;;;;25.60;15.90;;;;;;;18.82;41.59;101904.54;117305;1188;21858;-52
2021/10/05 07:18:08;;;;;;;26.60;13.70;;;;;;;19.05;41.54;101900.85;117364;1182;24160;-53
2021/10/05 07:20:36;;;;;;;38.40;25.80;;;;;;;19.18;41.29;101895.91;117394;1185;21857;-51
2021/10/05 07:23:04;;;;;;;270.30;169.00;;;;;;;19.32;41.21;101898.42;117318;1184;23527;-51
2021/10/05 07:25:33;;;;;;;84.30;56.20;;;;;;;19.50;41.13;101897.27;117306;1185;23556;-52
2021/10/05 07:28:03;;;;;;;140.30;75.30;;;;;;;19.67;41.07;101898.08;117292;1184;22919;-52
2021/10/05 07:30:31;;;;;;;159.20;103.80;;;;;;;19.85;41.06;101899.39;117349;1185;23443;-50
2021/10/05 07:33:03;;;;;;;69.60;47.00;;;;;;;20.02;41.01;101897.88;117327;1189;21859;-50
2021/10/05 07:35:32;;;;;;;199.90;125.50;;;;;;;20.20;40.92;101896.32;117341;1185;23534;-52
2021/10/05 07:38:00;;;;;;;426.50;300.70;;;;;;;20.34;40.85;101895.54;117364;1182;21845;-51
2021/10/05 07:40:29;;;;;;;180.80;121.90;;;;;;;20.49;40.73;101893.86;117343;1185;23560;-53
2021/10/05 07:42:58;;;;;;;183.30;110.80;;;;;;;20.61;40.57;101893.69;117338;1180;22910;-54
2021/10/05 07:45:28;;;;;;;113.50;73.30;;;;;;;20.68;40.52;101893.12;117376;1183;23825;-53
2021/10/05 07:47:57;;;;;;;76.00;50.20;;;;;;;20.82;40.52;101892.54;117357;1184;22903;-52
2021/10/05 07:50:25;;;;;;;36.10;23.80;;;;;;;20.97;40.48;101893.86;117348;1182;23978;-53
2021/10/05 07:52:58;;;;;;;229.40;127.00;;;;;;;21.09;40.34;101894.36;117317;1183;23544;-54
2021/10/05 07:55:29;;;;;;;374.90;227.20;;;;;;;21.28;40.45;101896.79;117341;1185;23441;-53
2021/10/05 07:57:59;;;;;;;220.70;136.80;;;;;;;21.51;40.47;101897.98;117357;1185;23721;-53
2021/10/05 08:00:27;;;;;;;83.80;55.30;;;;;;;21.74;40.43;101895.42;117326;1183;22619;-53
2021/10/05 08:02:56;;;;;;;235.70;138.30;;;;;;;21.88;40.28;101889.95;117331;1185;21842;-52
2021/10/05 08:05:24;;;;;;;319.20;197.40;;;;;;;21.98;40.15;101892.09;117301;1184;23439;-52
2021/10/05 08:08:05;;;;;;;139.00;83.40;;;;;;;22.10;39.96;101889.34;117247;1186;23820;-52
2021/10/05 08:10:39;;;;;;;229.00;129.70;;;;;;;22.24;39.98;101886.67;117334;1185;21852;-53
2021/10/05 08:13:07;;;;;;;88.10;50.90;;;;;;;22.40;39.98;101885.02;117335;1182;23567;-52
2021/10/05 08:15:36;;;;;;;57.50;38.20;;;;;;;22.55;39.71;101884.09;117398;1181;21911;-51
2021/10/05 08:18:05;;;;;;;39.30;24.30;;;;;;;22.68;39.66;101875.17;117414;1185;23462;-52
2021/10/05 08:20:34;;;;;;;22.40;13.20;;;;;;;22.83;39.69;101876.23;117346;1183;21893;-52
2021/10/05 08:23:02;;;;;;;12.90;8.10;;;;;;;22.94;39.68;101873.63;117274;1183;21852;-51
2021/10/05 08:25:32;;;;;;;14.00;6.60;;;;;;;23.05;39.52;101874.96;117330;1185;23567;-53
2021/10/05 08:28:00;;;;;;;22.60;9.10;;;;;;;23.17;39.51;101882.19;117346;1185;23829;-52
2021/10/05 08:30:29;;;;;;;9.70;5.30;;;;;;;23.25;39.34;101879.71;117370;1184;23545;-52
2021/10/05 08:32:57;;;;;;;18.30;11.00;;;;;;;23.36;39.22;101885.89;117344;1184;22751;-52
2021/10/05 08:35:26;;;;;;;18.50;10.40;;;;;;;23.45;39.14;101884.80;117331;1182;22915;-52
2021/10/05 08:37:56;;;;;;;21.60;11.60;;;;;;;23.52;39.06;101884.14;117452;1185;21902;-50
2021/10/05 08:40:26;;;;;;;13.00;6.90;;;;;;;23.63;38.97;101880.11;117294;1182;22619;-52
2021/10/05 08:42:54;;;;;;;7.60;4.30;;;;;;;23.73;38.86;101877.69;117131;1185;23443;-52
2021/10/05 08:45:23;;;;;;;8.50;4.60;;;;;;;23.78;38.75;101875.69;117327;1184;21870;-52
2021/10/05 08:47:51;;;;;;;7.80;3.60;;;;;;;23.87;38.75;101875.09;117376;1185;23567;-52
2021/10/05 08:50:21;;;;;;;8.70;3.90;;;;;;;23.96;38.83;101872.36;117349;1185;23553;-53
2021/10/05 08:52:49;;;;;;;6.80;3.40;;;;;;;24.09;38.64;101873.42;117431;1182;22917;-52
2021/10/05 08:55:17;;;;;;;5.00;2.70;;;;;;;24.19;38.54;101867.41;117395;1183;21862;-53
2021/10/05 08:57:47;;;;;;;4.20;2.80;;;;;;;24.28;38.58;101867.00;117337;1185;21868;-53
2021/10/05 09:00:15;;;;;;;7.10;5.00;;;;;;;24.35;38.39;101866.85;117296;1184;21850;-52
2021/10/05 09:02:54;;;;;;;6.30;3.30;;;;;;;24.41;38.32;101866.20;117346;1184;23542;-52
2021/10/05 09:05:26;;;;;;;4.10;2.50;;;;;;;24.48;38.20;101868.56;117324;1184;21963;-53
2021/10/05 09:07:57;;;;;;;9.00;4.00;;;;;;;24.60;38.13;101867.66;117363;1182;21854;-53
2021/10/05 09:10:30;;;;;;;5.70;2.80;;;;;;;24.72;37.99;101869.23;117317;1185;23699;-53
2021/10/05 09:13:09;;;;;;;5.00;2.70;;;;;;;24.84;38.01;101871.39;117338;1182;23554;-54
2021/10/05 09:15:38;;;;;;;5.40;2.40;;;;;;;24.97;37.92;101865.73;117240;1186;21864;-54
2021/10/05 09:18:07;;;;;;;6.60;2.90;;;;;;;25.09;37.83;101863.86;117278;1185;23544;-53
2021/10/05 09:20:35;;;;;;;6.50;3.20;;;;;;;25.18;37.88;101867.00;117340;1189;21861;-53
2021/10/05 09:23:13;;;;;;;6.60;2.70;;;;;;;25.25;37.83;101864.15;117319;1182;23440;-52
2021/10/05 09:25:53;;;;;;;6.10;2.90;;;;;;;25.33;37.65;101862.48;117358;1189;22904;-54
2021/10/05 09:28:22;;;;;;;5.70;2.70;;;;;;;25.43;37.57;101865.38;117319;1185;21888;-53
2021/10/05 09:31:03;;;;;;;4.60;2.20;;;;;;;25.52;37.51;101857.56;117373;1182;21857;-52
2021/10/05 09:33:32;;;;;;;8.60;3.10;;;;;;;25.60;37.47;101859.30;117346;1185;21903;-52
2021/10/05 09:36:01;;;;;;;6.10;2.30;;;;;;;25.72;37.35;101859.27;117361;1185;23526;-53
2021/10/05 09:38:30;;;;;;;5.60;2.30;;;;;;;25.83;37.17;101853.41;117354;1185;22919;-52
2021/10/05 09:41:07;;;;;;;5.70;2.50;;;;;;;25.87;37.03;101847.48;117385;1185;23566;-53
2021/10/05 09:43:35;;;;;;;6.60;3.10;;;;;;;25.88;37.02;101844.55;117138;1184;23466;-53
2021/10/05 09:46:10;;;;;;;9.00;4.00;;;;;;;25.92;36.96;101846.67;117326;1189;21850;-52
2021/10/05 09:48:38;;;;;;;7.60;3.60;;;;;;;25.96;36.86;101844.48;117352;1185;22443;-51
2021/10/05 09:51:23;;;;;;;8.10;2.80;;;;;;;25.97;36.78;101839.38;117395;1185;21896;-54
2021/10/05 09:53:52;;;;;;;7.00;2.70;;;;;;;25.97;36.69;101840.31;117305;1185;21954;-54
2021/10/05 09:56:22;;;;;;;6.30;2.60;;;;;;;25.97;36.64;101832.38;117351;1184;23544;-54
2021/10/05 09:58:51;;;;;;;;;;;;;;;26.02;36.63;101831.41;117327;1181;22427;-55
2021/10/05 10:01:19;;;;;;;5.80;2.70;;;;;;;26.07;36.57;101837.79;117348;1185;23551;-54
2021/10/05 10:03:49;;;;;;;4.80;2.40;;;;;;;26.14;36.54;101840.29;117361;1186;23454;-54
2021/10/05 10:06:18;;;;;;;5.50;2.40;;;;;;;26.15;36.48;101842.58;117377;1185;23667;-55
2021/10/05 10:08:47;;;;;;;4.20;2.50;;;;;;;26.17;36.34;101842.52;117369;1185;23466;-54
2021/10/05 10:11:19;;;;;;;5.40;2.90;;;;;;;26.20;36.37;101839.06;117314;1185;22924;-54
2021/10/05 10:13:48;;;;;;;6.20;2.40;;;;;;;26.21;36.28;101833.42;117376;1184;23466;-54
2021/10/05 10:16:16;;;;;;;5.30;2.10;;;;;;;26.26;36.18;101830.29;117372;1185;23545;-54
2021/10/05 10:18:58;;;;;;;5.30;3.00;;;;;;;26.30;36.08;101831.50;117310;1186;21868;-54
2021/10/05 10:21:34;;;;;;;5.20;2.70;;;;;;;26.34;36.05;101830.92;117382;1188;23564;-54
2021/10/05 10:24:11;;;;;;;4.50;2.70;;;;;;;26.35;35.96;101826.52;117364;1182;23450;-54
2021/10/05 10:26:44;;;;;;;6.10;2.80;;;;;;;26.32;35.91;101823.28;117339;1186;22918;-54
2021/10/05 10:29:32;;;;;;;5.40;2.20;;;;;;;26.36;35.80;101819.30;117313;1185;23595;-54
2021/10/05 10:32:21;;;;;;;4.70;2.60;;;;;;;26.37;35.80;101818.02;117413;1185;23605;-55
2021/10/05 10:35:03;;;;;;;4.00;2.10;;;;;;;26.38;35.78;101823.69;117350;1185;23566;-54
2021/10/05 10:37:51;;;;;;;4.70;2.00;;;;;;;26.40;35.67;101822.66;117421;1185;22919;-54
2021/10/05 10:40:35;;;;;;;5.20;2.60;;;;;;;26.44;35.55;101824.79;117280;1183;23499;-54
2021/10/05 10:43:17;;;;;;;6.40;2.60;;;;;;;26.45;35.49;101824.58;117369;1185;21855;-54
2021/10/05 10:45:54;;;;;;;4.50;2.70;;;;;;;26.47;35.48;101825.51;117361;1185;21849;-54
2021/10/05 10:48:30;;;;;;;3.40;2.50;;;;;;;26.46;35.35;101826.87;117380;1183;21858;-54
2021/10/05 10:51:13;;;;;;;3.40;2.10;;;;;;;26.44;35.26;101820.84;117401;1183;22915;-54
2021/10/05 10:53:45;;;;;;;5.70;2.40;;;;;;;26.41;35.18;101819.05;117400;1185;23604;-54
2021/10/05 10:56:29;;;;;;;6.60;2.70;;;;;;;26.40;35.14;101819.80;117275;1185;22952;-54
2021/10/05 10:59:05;;;;;;;6.40;2.70;;;;;;;26.41;35.02;101816.13;117374;1185;23567;-54
2021/10/05 11:01:45;;;;;;;5.90;2.70;;;;;;;26.40;35.00;101812.64;117365;1185;23553;-55
2021/10/05 11:04:15;;;;;;;4.20;2.80;;;;;;;26.39;34.96;101809.41;117379;1179;22934;-55
2021/10/05 11:06:49;;;;;;;5.20;3.20;;;;;;;26.40;34.97;101805.59;117361;1188;22059;-54
2021/10/05 11:09:17;;;;;;;5.00;2.70;;;;;;;26.49;34.82;101800.24;117334;1185;21919;-54
2021/10/05 11:11:49;;;;;;;5.50;2.20;;;;;;;26.50;34.68;101795.85;117359;1185;21855;-54
2021/10/05 11:14:22;;;;;;;8.40;2.60;;;;;;;26.53;34.54;101785.23;117367;1185;21872;-55
2021/10/05 11:16:58;;;;;;;5.00;2.40;;;;;;;26.53;34.54;101785.20;117317;1186;23545;-54
2021/10/05 11:19:30;;;;;;;6.50;2.70;;;;;;;26.54;34.38;101783.91;117361;1185;21899;-55
2021/10/05 11:21:59;;;;;;;5.00;2.30;;;;;;;26.56;34.22;101788.65;117341;1184;23540;-54
2021/10/05 11:24:37;;;;;;;5.10;2.90;;;;;;;26.54;34.22;101783.92;117371;1182;22629;-54
2021/10/05 11:27:16;;;;;;;9.40;3.60;;;;;;;26.48;34.24;101783.91;117348;1184;23566;-55